sensor_id;sensor_type;location;lat;lon;timestamp;pressure;altitude;pressure_sealevel;temperature;humidity
19208;BME280;9737;59.466;18.036;2023-07-08T00:02:13;98599.50;;;13.20;70.13
19208;BME280;9737;59.466;18.036;2023-07-08T00:04:42;98590.13;;;13.16;70.17
19208;BME280;9737;59.466;18.036;2023-07-08T00:07:11;98600.50;;;13.19;70.19
19208;BME280;9737;59.466;18.036;2023-07-08T00:09:40;98612.00;;;13.20;70.46
19208;BME280;9737;59.466;18.036;2023-07-08T00:12:10;98594.66;;;13.16;70.57
19208;BME280;9737;59.466;18.036;2023-07-08T00:14:38;98577.50;;;13.10;70.63
19208;BME280;9737;59.466;18.036;2023-07-08T00:17:10;98542.84;;;13.02;70.60
19208;BME280;9737;59.466;18.036;2023-07-08T00:19:39;98514.16;;;12.96;70.79
19208;BME280;9737;59.466;18.036;2023-07-08T00:22:11;98499.53;;;12.92;70.87
19208;BME280;9737;59.466;18.036;2023-07-08T00:24:41;98503.03;;;12.92;71.00
19208;BME280;9737;59.466;18.036;2023-07-08T00:27:12;98479.88;;;12.85;70.84
19208;BME280;9737;59.466;18.036;2023-07-08T00:29:40;98479.88;;;12.85;70.87
19208;BME280;9737;59.466;18.036;2023-07-08T00:32:10;98451.44;;;12.77;71.06
19208;BME280;9737;59.466;18.036;2023-07-08T00:34:39;98454.09;;;12.77;71.40
19208;BME280;9737;59.466;18.036;2023-07-08T00:37:10;98462.94;;;12.78;71.20
19208;BME280;9737;59.466;18.036;2023-07-08T00:39:38;98452.59;;;12.75;71.37
19208;BME280;9737;59.466;18.036;2023-07-08T00:42:15;98432.59;;;12.70;71.51
19208;BME280;9737;59.466;18.036;2023-07-08T00:44:44;98409.31;;;12.64;71.38
19208;BME280;9737;59.466;18.036;2023-07-08T00:47:14;98440.28;;;12.74;71.53
19208;BME280;9737;59.466;18.036;2023-07-08T00:49:45;98446.44;;;12.74;71.67
19208;BME280;9737;59.466;18.036;2023-07-08T00:52:20;98437.94;;;12.70;71.96
19208;BME280;9737;59.466;18.036;2023-07-08T00:54:50;98447.28;;;12.75;71.82
19208;BME280;9737;59.466;18.036;2023-07-08T00:57:21;98434.63;;;12.68;71.98
19208;BME280;9737;59.466;18.036;2023-07-08T00:59:53;98405.97;;;12.62;71.92
19208;BME280;9737;59.466;18.036;2023-07-08T01:02:26;98388.69;;;12.58;71.90
19208;BME280;9737;59.466;18.036;2023-07-08T01:04:59;98381.88;;;12.56;72.12
19208;BME280;9737;59.466;18.036;2023-07-08T01:07:30;98381.03;;;12.55;72.38
19208;BME280;9737;59.466;18.036;2023-07-08T01:10:02;98360.75;;;12.46;72.29
19208;BME280;9737;59.466;18.036;2023-07-08T01:12:35;98386.38;;;12.55;72.41
19208;BME280;9737;59.466;18.036;2023-07-08T01:15:06;98357.75;;;12.49;72.56
19208;BME280;9737;59.466;18.036;2023-07-08T01:17:34;98362.06;;;12.50;72.53
19208;BME280;9737;59.466;18.036;2023-07-08T01:20:04;98365.75;;;12.49;72.70
19208;BME280;9737;59.466;18.036;2023-07-08T01:22:35;98374.09;;;12.46;72.82
19208;BME280;9737;59.466;18.036;2023-07-08T01:25:05;98378.72;;;12.52;72.85
19208;BME280;9737;59.466;18.036;2023-07-08T01:27:36;98373.75;;;12.49;72.79
19208;BME280;9737;59.466;18.036;2023-07-08T01:30:07;98353.94;;;12.44;73.05
19208;BME280;9737;59.466;18.036;2023-07-08T01:32:37;98348.75;;;12.42;73.15
19208;BME280;9737;59.466;18.036;2023-07-08T01:35:09;98319.50;;;12.34;73.13
19208;BME280;9737;59.466;18.036;2023-07-08T01:37:41;98301.53;;;12.28;73.00
19208;BME280;9737;59.466;18.036;2023-07-08T01:40:15;98273.59;;;12.24;73.16
19208;BME280;9737;59.466;18.036;2023-07-08T01:42:43;98260.78;;;12.19;73.40
19208;BME280;9737;59.466;18.036;2023-07-08T01:45:12;98248.66;;;12.17;73.28
19208;BME280;9737;59.466;18.036;2023-07-08T01:47:42;98244.34;;;12.16;73.40
19208;BME280;9737;59.466;18.036;2023-07-08T01:50:13;98232.69;;;12.08;73.82
19208;BME280;9737;59.466;18.036;2023-07-08T01:52:42;98216.72;;;12.08;73.55
19208;BME280;9737;59.466;18.036;2023-07-08T01:55:10;98217.06;;;12.05;73.67
19208;BME280;9737;59.466;18.036;2023-07-08T01:57:38;98211.72;;;12.05;73.66
19208;BME280;9737;59.466;18.036;2023-07-08T02:00:07;98212.56;;;12.06;73.92
19208;BME280;9737;59.466;18.036;2023-07-08T02:02:35;98222.03;;;12.08;73.65
19208;BME280;9737;59.466;18.036;2023-07-08T02:05:03;98211.72;;;12.05;74.03
19208;BME280;9737;59.466;18.036;2023-07-08T02:07:31;98217.06;;;12.05;74.04
19208;BME280;9737;59.466;18.036;2023-07-08T02:10:00;98219.72;;;12.05;74.20
19208;BME280;9737;59.466;18.036;2023-07-08T02:12:28;98208.41;;;12.03;74.19
19208;BME280;9737;59.466;18.036;2023-07-08T02:14:56;98200.78;;;12.00;74.08
19208;BME280;9737;59.466;18.036;2023-07-08T02:17:24;98216.22;;;12.05;74.53
19208;BME280;9737;59.466;18.036;2023-07-08T02:19:52;98228.38;;;12.07;74.28
19208;BME280;9737;59.466;18.036;2023-07-08T02:22:20;98238.03;;;12.08;74.64
19208;BME280;9737;59.466;18.036;2023-07-08T02:24:47;98260.63;;;12.13;74.54
19208;BME280;9737;59.466;18.036;2023-07-08T02:27:17;98271.81;;;12.16;74.65
19208;BME280;9737;59.466;18.036;2023-07-08T02:32:19;98283.63;;;12.14;75.01
19208;BME280;9737;59.466;18.036;2023-07-08T02:34:57;98292.59;;;12.21;74.94
19208;BME280;9737;59.466;18.036;2023-07-08T02:37:25;98299.59;;;12.22;74.97
19208;BME280;9737;59.466;18.036;2023-07-08T02:39:53;98321.38;;;12.25;75.03
19208;BME280;9737;59.466;18.036;2023-07-08T02:42:22;98320.38;;;12.26;75.21
19208;BME280;9737;59.466;18.036;2023-07-08T02:44:49;98328.19;;;12.28;75.14
19208;BME280;9737;59.466;18.036;2023-07-08T02:47:17;98318.72;;;12.25;75.19
19208;BME280;9737;59.466;18.036;2023-07-08T02:49:45;98335.19;;;12.29;75.20
19208;BME280;9737;59.466;18.036;2023-07-08T02:52:13;98350.81;;;12.32;75.38
19208;BME280;9737;59.466;18.036;2023-07-08T02:54:41;98359.47;;;12.34;75.47
19208;BME280;9737;59.466;18.036;2023-07-08T02:57:09;98383.75;;;12.39;75.42
19208;BME280;9737;59.466;18.036;2023-07-08T02:59:38;98402.75;;;12.44;75.56
19208;BME280;9737;59.466;18.036;2023-07-08T03:02:06;98434.06;;;12.50;75.59
19208;BME280;9737;59.466;18.036;2023-07-08T03:04:33;98448.88;;;12.53;75.63
19208;BME280;9737;59.466;18.036;2023-07-08T03:07:05;98480.66;;;12.62;75.74
19208;BME280;9737;59.466;18.036;2023-07-08T03:09:38;98534.28;;;12.76;75.90
19208;BME280;9737;59.466;18.036;2023-07-08T03:12:07;98551.94;;;12.77;76.05
19208;BME280;9737;59.466;18.036;2023-07-08T03:14:35;98583.28;;;12.83;76.17
19208;BME280;9737;59.466;18.036;2023-07-08T03:17:05;98597.75;;;12.88;76.19
19208;BME280;9737;59.466;18.036;2023-07-08T03:19:33;98632.41;;;12.96;76.25
19208;BME280;9737;59.466;18.036;2023-07-08T03:22:01;98654.22;;;13.00;76.08
19208;BME280;9737;59.466;18.036;2023-07-08T03:24:31;98691.41;;;13.10;76.53
19208;BME280;9737;59.466;18.036;2023-07-08T03:26:59;98784.16;;;13.32;76.34
19208;BME280;9737;59.466;18.036;2023-07-08T03:29:31;98847.38;;;13.48;76.54
19208;BME280;9737;59.466;18.036;2023-07-08T03:31:59;98876.25;;;13.52;76.72
19208;BME280;9737;59.466;18.036;2023-07-08T03:34:28;98933.84;;;13.63;76.54
19208;BME280;9737;59.466;18.036;2023-07-08T03:36:56;98934.50;;;13.65;76.80
19208;BME280;9737;59.466;18.036;2023-07-08T03:39:24;98969.38;;;13.72;76.90
19208;BME280;9737;59.466;18.036;2023-07-08T03:41:52;98996.25;;;13.78;76.85
19208;BME280;9737;59.466;18.036;2023-07-08T03:44:20;99040.38;;;13.90;77.06
19208;BME280;9737;59.466;18.036;2023-07-08T03:46:49;99067.25;;;13.97;77.09
19208;BME280;9737;59.466;18.036;2023-07-08T03:49:18;99108.16;;;14.06;77.41
19208;BME280;9737;59.466;18.036;2023-07-08T03:51:51;99160.47;;;14.16;77.23
19208;BME280;9737;59.466;18.036;2023-07-08T03:54:21;99211.78;;;14.28;77.16
19208;BME280;9737;59.466;18.036;2023-07-08T03:56:49;99321.34;;;14.54;77.17
19208;BME280;9737;59.466;18.036;2023-07-08T03:59:17;99358.66;;;14.64;77.83
19208;BME280;9737;59.466;18.036;2023-07-08T04:01:45;99404.81;;;14.74;77.89
19208;BME280;9737;59.466;18.036;2023-07-08T04:04:15;99445.00;;;14.82;77.67
19208;BME280;9737;59.466;18.036;2023-07-08T04:06:43;99479.81;;;14.90;77.56
19208;BME280;9737;59.466;18.036;2023-07-08T04:09:13;99533.06;;;15.01;78.04
19208;BME280;9737;59.466;18.036;2023-07-08T04:11:41;99576.78;;;15.10;77.83
19208;BME280;9737;59.466;18.036;2023-07-08T04:14:09;99630.72;;;15.23;78.06
19208;BME280;9737;59.466;18.036;2023-07-08T04:16:45;99726.75;;;15.44;78.01
19208;BME280;9737;59.466;18.036;2023-07-08T04:19:15;99753.91;;;15.49;78.20
19208;BME280;9737;59.466;18.036;2023-07-08T04:21:44;99765.97;;;15.53;78.36
19208;BME280;9737;59.466;18.036;2023-07-08T04:24:15;99779.22;;;15.55;78.16
19208;BME280;9737;59.466;18.036;2023-07-08T04:26:44;99843.16;;;15.67;78.31
19208;BME280;9737;59.466;18.036;2023-07-08T04:29:15;99862.09;;;15.74;78.47
19208;BME280;9737;59.466;18.036;2023-07-08T04:31:43;99905.88;;;15.83;78.41
19208;BME280;9737;59.466;18.036;2023-07-08T04:34:11;99945.84;;;15.94;78.54
19208;BME280;9737;59.466;18.036;2023-07-08T04:36:39;99970.34;;;15.99;78.65
19208;BME280;9737;59.466;18.036;2023-07-08T04:39:08;100030.06;;;16.09;78.52
19208;BME280;9737;59.466;18.036;2023-07-08T04:41:39;100063.03;;;16.19;78.81
19208;BME280;9737;59.466;18.036;2023-07-08T04:44:08;100077.13;;;16.21;78.60
19208;BME280;9737;59.466;18.036;2023-07-08T04:46:40;100208.47;;;16.49;78.88
19208;BME280;9737;59.466;18.036;2023-07-08T04:49:09;100241.59;;;16.57;78.71
19208;BME280;9737;59.466;18.036;2023-07-08T04:51:37;100280.97;;;16.66;78.96
19208;BME280;9737;59.466;18.036;2023-07-08T04:54:06;100317.91;;;16.72;78.90
19208;BME280;9737;59.466;18.036;2023-07-08T04:56:37;100307.19;;;16.72;78.99
19208;BME280;9737;59.466;18.036;2023-07-08T04:59:07;100359.13;;;16.81;78.95
19208;BME280;9737;59.466;18.036;2023-07-08T05:01:37;100401.19;;;16.90;79.16
19208;BME280;9737;59.466;18.036;2023-07-08T05:04:05;100390.44;;;16.90;79.21
19208;BME280;9737;59.466;18.036;2023-07-08T05:06:34;100437.69;;;17.01;79.08
19208;BME280;9737;59.466;18.036;2023-07-08T05:09:02;100465.81;;;17.07;79.07
19208;BME280;9737;59.466;18.036;2023-07-08T05:11:31;100551.94;;;17.23;79.17
19208;BME280;9737;59.466;18.036;2023-07-08T05:13:59;100607.88;;;17.37;79.23
19208;BME280;9737;59.466;18.036;2023-07-08T05:16:29;100640.22;;;17.45;79.14
19208;BME280;9737;59.466;18.036;2023-07-08T05:18:57;100670.88;;;17.52;79.20
19208;BME280;9737;59.466;18.036;2023-07-08T05:21:25;100698.16;;;17.57;79.27
19208;BME280;9737;59.466;18.036;2023-07-08T05:23:54;100720.22;;;17.61;79.32
19208;BME280;9737;59.466;18.036;2023-07-08T05:26:22;100715.84;;;17.60;79.21
19208;BME280;9737;59.466;18.036;2023-07-08T05:28:49;100786.84;;;17.77;79.29
19208;BME280;9737;59.466;18.036;2023-07-08T05:31:17;100794.75;;;17.78;79.44
19208;BME280;9737;59.466;18.036;2023-07-08T05:33:46;100754.75;;;17.65;79.29
19208;BME280;9737;59.466;18.036;2023-07-08T05:36:14;100848.50;;;17.88;79.18
19208;BME280;9737;59.466;18.036;2023-07-08T05:38:42;100915.28;;;18.02;79.30
19208;BME280;9737;59.466;18.036;2023-07-08T05:41:10;101004.75;;;18.23;79.14
19208;BME280;9737;59.466;18.036;2023-07-08T05:43:38;101033.59;;;18.31;79.25
19208;BME280;9737;59.466;18.036;2023-07-08T05:46:07;101097.88;;;18.44;79.15
19208;BME280;9737;59.466;18.036;2023-07-08T05:48:38;101169.88;;;18.61;79.12
19208;BME280;9737;59.466;18.036;2023-07-08T05:51:08;101248.09;;;18.79;79.06
19208;BME280;9737;59.466;18.036;2023-07-08T05:53:36;101323.81;;;18.95;79.08
19208;BME280;9737;59.466;18.036;2023-07-08T05:56:04;101381.09;;;19.07;79.05
19208;BME280;9737;59.466;18.036;2023-07-08T05:58:31;101424.25;;;19.16;79.26
19208;BME280;9737;59.466;18.036;2023-07-08T06:00:59;101456.88;;;19.23;79.24
19208;BME280;9737;59.466;18.036;2023-07-08T06:03:28;101514.19;;;19.35;79.08
19208;BME280;9737;59.466;18.036;2023-07-08T06:05:56;101560.78;;;19.46;79.07
19208;BME280;9737;59.466;18.036;2023-07-08T06:08:25;101574.69;;;19.52;78.97
19208;BME280;9737;59.466;18.036;2023-07-08T06:10:53;101643.72;;;19.64;79.08
19208;BME280;9737;59.466;18.036;2023-07-08T06:13:21;101678.13;;;19.71;79.03
19208;BME280;9737;59.466;18.036;2023-07-08T06:15:49;101732.66;;;19.85;78.93
19208;BME280;9737;59.466;18.036;2023-07-08T06:18:17;101756.53;;;19.89;78.98
19208;BME280;9737;59.466;18.036;2023-07-08T06:20:51;101803.44;;;19.98;78.81
19208;BME280;9737;59.466;18.036;2023-07-08T06:23:19;101867.69;;;20.14;78.74
19208;BME280;9737;59.466;18.036;2023-07-08T06:25:49;101900.41;;;20.20;78.76
19208;BME280;9737;59.466;18.036;2023-07-08T06:28:17;101924.31;;;20.25;78.77
19208;BME280;9737;59.466;18.036;2023-07-08T06:30:45;101912.34;;;20.18;78.80
19208;BME280;9737;59.466;18.036;2023-07-08T06:33:13;101940.25;;;20.28;78.66
19208;BME280;9737;59.466;18.036;2023-07-08T06:35:43;101985.31;;;20.37;78.58
19208;BME280;9737;59.466;18.036;2023-07-08T06:38:12;102056.69;;;20.55;78.63
19208;BME280;9737;59.466;18.036;2023-07-08T06:40:40;102014.53;;;20.43;78.45
19208;BME280;9737;59.466;18.036;2023-07-08T06:43:09;102004.72;;;20.42;78.51
19208;BME280;9737;59.466;18.036;2023-07-08T06:45:37;102015.94;;;20.47;78.42
19208;BME280;9737;59.466;18.036;2023-07-08T06:48:05;102089.41;;;20.62;78.38
19208;BME280;9737;59.466;18.036;2023-07-08T06:50:33;102120.28;;;20.69;78.31
19208;BME280;9737;59.466;18.036;2023-07-08T06:53:01;102135.38;;;20.71;78.14
19208;BME280;9737;59.466;18.036;2023-07-08T06:55:29;102130.97;;;20.70;78.13
19208;BME280;9737;59.466;18.036;2023-07-08T06:57:57;102210.44;;;20.89;78.02
19208;BME280;9737;59.466;18.036;2023-07-08T07:00:26;102240.38;;;20.97;77.98
19208;BME280;9737;59.466;18.036;2023-07-08T07:02:54;102253.63;;;21.00;77.90
19208;BME280;9737;59.466;18.036;2023-07-08T07:05:21;102289.94;;;21.07;77.87
19208;BME280;9737;59.466;18.036;2023-07-08T07:07:49;102328.72;;;21.17;77.73
19208;BME280;9737;59.466;18.036;2023-07-08T07:10:19;102410.28;;;21.33;77.83
19208;BME280;9737;59.466;18.036;2023-07-08T07:12:47;102456.22;;;21.45;77.84
19208;BME280;9737;59.466;18.036;2023-07-08T07:15:15;102520.97;;;21.57;77.51
19208;BME280;9737;59.466;18.036;2023-07-08T07:17:45;102613.88;;;21.79;77.44
19208;BME280;9737;59.466;18.036;2023-07-08T07:20:13;102735.28;;;22.06;77.49
19208;BME280;9737;59.466;18.036;2023-07-08T07:22:40;102847.75;;;22.32;77.32
19208;BME280;9737;59.466;18.036;2023-07-08T07:25:08;102920.63;;;22.46;77.49
19208;BME280;9737;59.466;18.036;2023-07-08T07:27:36;103038.75;;;22.71;77.05
19208;BME280;9737;59.466;18.036;2023-07-08T07:30:05;103030.75;;;22.70;77.17
19208;BME280;9737;59.466;18.036;2023-07-08T07:32:33;103046.75;;;22.73;77.04
19208;BME280;9737;59.466;18.036;2023-07-08T07:35:04;103065.34;;;22.77;77.29
19208;BME280;9737;59.466;18.036;2023-07-08T07:37:32;103061.91;;;22.75;76.94
19208;BME280;9737;59.466;18.036;2023-07-08T07:40:00;102968.69;;;22.55;77.00
19208;BME280;9737;59.466;18.036;2023-07-08T07:42:27;102987.13;;;22.62;76.96
19208;BME280;9737;59.466;18.036;2023-07-08T07:44:55;103001.44;;;22.64;76.67
19208;BME280;9737;59.466;18.036;2023-07-08T07:47:23;103075.09;;;22.80;76.52
19208;BME280;9737;59.466;18.036;2023-07-08T07:49:53;103147.84;;;22.97;76.37
19208;BME280;9737;59.466;18.036;2023-07-08T07:52:23;103240.31;;;23.16;76.66
19208;BME280;9737;59.466;18.036;2023-07-08T07:54:51;103215.66;;;23.08;76.57
19208;BME280;9737;59.466;18.036;2023-07-08T07:57:20;103336.28;;;23.38;76.00
19208;BME280;9737;59.466;18.036;2023-07-08T07:59:48;103380.72;;;23.48;76.14
19208;BME280;9737;59.466;18.036;2023-07-08T08:02:17;103500.88;;;23.74;75.80
19208;BME280;9737;59.466;18.036;2023-07-08T08:04:45;103549.63;;;23.87;76.06
19208;BME280;9737;59.466;18.036;2023-07-08T08:07:13;103613.88;;;23.99;75.71
19208;BME280;9737;59.466;18.036;2023-07-08T08:09:42;103706.56;;;24.18;76.02
19208;BME280;9737;59.466;18.036;2023-07-08T08:12:11;103719.94;;;24.21;75.96
19208;BME280;9737;59.466;18.036;2023-07-08T08:14:39;103567.44;;;23.91;75.43
19208;BME280;9737;59.466;18.036;2023-07-08T08:17:07;103531.88;;;23.83;75.35
19208;BME280;9737;59.466;18.036;2023-07-08T08:19:35;103397.38;;;23.55;75.32
19208;BME280;9737;59.466;18.036;2023-07-08T08:22:03;103462.19;;;23.70;75.21
19208;BME280;9737;59.466;18.036;2023-07-08T08:24:32;103445.16;;;23.68;74.93
19208;BME280;9737;59.466;18.036;2023-07-08T08:27:02;103568.91;;;23.95;74.96
19208;BME280;9737;59.466;18.036;2023-07-08T08:29:30;103620.56;;;24.06;74.67
19208;BME280;9737;59.466;18.036;2023-07-08T08:31:58;103706.06;;;24.24;74.71
19208;BME280;9737;59.466;18.036;2023-07-08T08:34:26;103758.66;;;24.36;74.79
19208;BME280;9737;59.466;18.036;2023-07-08T08:36:54;103890.53;;;24.65;74.69
19208;BME280;9737;59.466;18.036;2023-07-08T08:39:22;103803.06;;;24.48;74.68
19208;BME280;9737;59.466;18.036;2023-07-08T08:41:51;103760.16;;;24.40;74.26
19208;BME280;9737;59.466;18.036;2023-07-08T08:44:27;103802.06;;;24.49;74.39
19208;BME280;9737;59.466;18.036;2023-07-08T08:47:02;103874.31;;;24.64;74.16
19208;BME280;9737;59.466;18.036;2023-07-08T08:49:37;104023.13;;;24.98;74.05
19208;BME280;9737;59.466;18.036;2023-07-08T08:52:07;104040.97;;;25.02;73.90
19208;BME280;9737;59.466;18.036;2023-07-08T08:54:36;104102.63;;;25.15;73.76
19208;BME280;9737;59.466;18.036;2023-07-08T08:57:11;104239.44;;;25.42;73.62
19208;BME280;9737;59.466;18.036;2023-07-08T08:59:44;104285.81;;;25.53;73.50
19208;BME280;9737;59.466;18.036;2023-07-08T09:02:25;104542.53;;;26.08;73.41
19208;BME280;9737;59.466;18.036;2023-07-08T09:04:58;104806.78;;;26.63;73.33
19208;BME280;9737;59.466;18.036;2023-07-08T09:07:29;104641.72;;;26.31;72.99
19208;BME280;9737;59.466;18.036;2023-07-08T09:10:03;104588.84;;;26.20;73.09
19208;BME280;9737;59.466;18.036;2023-07-08T09:12:33;104764.50;;;26.56;72.55
19208;BME280;9737;59.466;18.036;2023-07-08T09:15:11;104976.94;;;27.02;72.75
19208;BME280;9737;59.466;18.036;2023-07-08T09:17:39;105125.91;;;27.33;72.39
19208;BME280;9737;59.466;18.036;2023-07-08T09:20:17;105281.38;;;27.64;72.12
19208;BME280;9737;59.466;18.036;2023-07-08T09:22:52;105085.25;;;27.28;72.48
19208;BME280;9737;59.466;18.036;2023-07-08T09:25:30;104778.50;;;26.64;72.42
19208;BME280;9737;59.466;18.036;2023-07-08T09:27:59;104683.19;;;26.48;72.20
19208;BME280;9737;59.466;18.036;2023-07-08T09:30:28;104822.00;;;26.78;71.85
19208;BME280;9737;59.466;18.036;2023-07-08T09:32:57;105141.53;;;27.43;71.63
19208;BME280;9737;59.466;18.036;2023-07-08T09:35:38;105670.19;;;28.53;71.54
19208;BME280;9737;59.466;18.036;2023-07-08T09:38:15;105949.72;;;29.07;71.16
19208;BME280;9737;59.466;18.036;2023-07-08T09:40:46;106033.63;;;29.24;71.34
19208;BME280;9737;59.466;18.036;2023-07-08T09:43:25;105915.28;;;29.03;70.87
19208;BME280;9737;59.466;18.036;2023-07-08T09:45:58;106164.19;;;29.55;70.58
19208;BME280;9737;59.466;18.036;2023-07-08T09:48:28;106031.34;;;29.30;70.69
19208;BME280;9737;59.466;18.036;2023-07-08T09:50:57;106001.59;;;29.24;70.54
19208;BME280;9737;59.466;18.036;2023-07-08T09:53:26;106169.34;;;29.59;70.20
19208;BME280;9737;59.466;18.036;2023-07-08T09:55:56;106108.03;;;29.46;70.16
19208;BME280;9737;59.466;18.036;2023-07-08T09:58:29;106034.66;;;29.36;70.02
19208;BME280;9737;59.466;18.036;2023-07-08T10:01:02;106160.91;;;29.63;69.51
19208;BME280;9737;59.466;18.036;2023-07-08T10:03:34;106602.81;;;30.51;69.22
19208;BME280;9737;59.466;18.036;2023-07-08T10:06:10;106936.19;;;31.14;69.18
19208;BME280;9737;59.466;18.036;2023-07-08T10:08:44;107179.38;;;31.59;69.00
19208;BME280;9737;59.466;18.036;2023-07-08T10:11:22;107666.03;;;32.58;68.64
19208;BME280;9737;59.466;18.036;2023-07-08T10:13:54;108155.91;;;33.51;68.53
19208;BME280;9737;59.466;18.036;2023-07-08T10:16:32;108451.34;;;34.09;68.26
19208;BME280;9737;59.466;18.036;2023-07-08T10:19:01;108418.41;;;34.05;68.17
19208;BME280;9737;59.466;18.036;2023-07-08T10:21:34;108752.75;;;34.67;67.85
19208;BME280;9737;59.466;18.036;2023-07-08T10:24:17;108939.25;;;35.04;67.36
19208;BME280;9737;59.466;18.036;2023-07-08T10:26:52;108733.28;;;34.69;67.28
19208;BME280;9737;59.466;18.036;2023-07-08T10:29:29;108341.25;;;34.00;67.39
19208;BME280;9737;59.466;18.036;2023-07-08T10:32:10;106967.31;;;31.45;66.91
19208;BME280;9737;59.466;18.036;2023-07-08T10:34:45;106263.66;;;30.14;66.85
19208;BME280;9737;59.466;18.036;2023-07-08T10:37:25;105534.75;;;28.70;66.38
19208;BME280;9737;59.466;18.036;2023-07-08T10:40:10;104996.00;;;27.64;66.38
19208;BME280;9737;59.466;18.036;2023-07-08T10:42:51;105044.09;;;27.79;66.14
19208;BME280;9737;59.466;18.036;2023-07-08T10:45:29;105913.25;;;29.59;65.38
19208;BME280;9737;59.466;18.036;2023-07-08T10:48:13;106895.97;;;31.56;65.41
19208;BME280;9737;59.466;18.036;2023-07-08T10:50:54;107294.59;;;32.28;65.15
19208;BME280;9737;59.466;18.036;2023-07-08T10:53:46;107366.16;;;32.46;64.94
19208;BME280;9737;59.466;18.036;2023-07-08T10:56:16;107246.13;;;32.24;64.72
19208;BME280;9737;59.466;18.036;2023-07-08T11:02:00;106822.88;;;31.51;64.02
19208;BME280;9737;59.466;18.036;2023-07-08T11:04:49;106402.06;;;30.67;63.99
19208;BME280;9737;59.466;18.036;2023-07-08T11:07:29;105963.56;;;29.85;63.70
19208;BME280;9737;59.466;18.036;2023-07-08T11:10:02;105419.44;;;28.73;63.60
19208;BME280;9737;59.466;18.036;2023-07-08T11:12:35;105134.97;;;28.19;63.20
19208;BME280;9737;59.466;18.036;2023-07-08T11:15:11;104965.91;;;27.88;63.09
19208;BME280;9737;59.466;18.036;2023-07-08T11:17:44;104775.78;;;27.47;63.16
19208;BME280;9737;59.466;18.036;2023-07-08T11:20:18;105091.19;;;28.19;62.87
19208;BME280;9737;59.466;18.036;2023-07-08T11:22:51;105083.09;;;28.18;62.44
19208;BME280;9737;59.466;18.036;2023-07-08T11:25:21;105583.81;;;29.24;62.31
19208;BME280;9737;59.466;18.036;2023-07-08T11:27:55;106497.25;;;31.09;62.22
19208;BME280;9737;59.466;18.036;2023-07-08T11:30:27;107097.09;;;32.27;62.21
19208;BME280;9737;59.466;18.036;2023-07-08T11:33:00;107761.50;;;33.56;61.62
19208;BME280;9737;59.466;18.036;2023-07-08T11:35:37;108529.34;;;35.04;61.54
19208;BME280;9737;59.466;18.036;2023-07-08T11:38:10;108987.69;;;35.88;61.38
19208;BME280;9737;59.466;18.036;2023-07-08T11:40:53;109107.56;;;36.12;61.12
19208;BME280;9737;59.466;18.036;2023-07-08T11:43:25;109260.63;;;36.40;61.37
19208;BME280;9737;59.466;18.036;2023-07-08T11:45:56;109300.75;;;36.52;61.17
19208;BME280;9737;59.466;18.036;2023-07-08T11:48:27;109379.50;;;36.68;60.69
19208;BME280;9737;59.466;18.036;2023-07-08T11:51:04;109526.16;;;36.99;60.26
19208;BME280;9737;59.466;18.036;2023-07-08T11:53:37;110005.94;;;37.85;60.17
19208;BME280;9737;59.466;18.036;2023-07-08T11:56:20;109935.00;;;37.74;59.75
19208;BME280;9737;59.466;18.036;2023-07-08T11:58:58;109161.66;;;36.39;59.98
19208;BME280;9737;59.466;18.036;2023-07-08T12:01:28;108414.81;;;35.05;59.59
19208;BME280;9737;59.466;18.036;2023-07-08T12:04:13;107394.25;;;33.11;59.92
19208;BME280;9737;59.466;18.036;2023-07-08T12:06:47;106551.31;;;31.50;59.37
19208;BME280;9737;59.466;18.036;2023-07-08T12:09:22;106219.06;;;30.88;59.10
19208;BME280;9737;59.466;18.036;2023-07-08T12:11:57;105826.28;;;30.10;58.69
19208;BME280;9737;59.466;18.036;2023-07-08T12:14:27;106013.53;;;30.53;58.24
19208;BME280;9737;59.466;18.036;2023-07-08T12:16:55;106602.63;;;31.78;57.99
19208;BME280;9737;59.466;18.036;2023-07-08T12:19:25;107417.38;;;33.38;57.79
19208;BME280;9737;59.466;18.036;2023-07-08T12:22:04;107708.53;;;33.94;57.66
19208;BME280;9737;59.466;18.036;2023-07-08T12:24:32;107379.13;;;33.32;57.52
19208;BME280;9737;59.466;18.036;2023-07-08T12:27:00;106588.84;;;31.78;57.61
19208;BME280;9737;59.466;18.036;2023-07-08T12:29:28;105930.78;;;30.45;57.44
19208;BME280;9737;59.466;18.036;2023-07-08T12:31:56;105458.47;;;29.50;57.22
19208;BME280;9737;59.466;18.036;2023-07-08T12:34:24;105805.75;;;30.27;56.83
19208;BME280;9737;59.466;18.036;2023-07-08T12:36:53;106817.16;;;32.36;56.30
19208;BME280;9737;59.466;18.036;2023-07-08T12:39:23;107859.34;;;34.44;56.35
19208;BME280;9737;59.466;18.036;2023-07-08T12:41:51;108225.94;;;35.14;56.29
19208;BME280;9737;59.466;18.036;2023-07-08T12:44:20;108805.19;;;36.27;55.80
19208;BME280;9737;59.466;18.036;2023-07-08T12:46:52;109157.84;;;36.94;55.73
19208;BME280;9737;59.466;18.036;2023-07-08T12:49:20;109247.66;;;37.11;55.90
19208;BME280;9737;59.466;18.036;2023-07-08T12:51:53;109621.13;;;37.82;55.84
19208;BME280;9737;59.466;18.036;2023-07-08T12:54:22;109054.19;;;36.76;55.67
19208;BME280;9737;59.466;18.036;2023-07-08T12:56:51;107939.19;;;34.64;55.41
19208;BME280;9737;59.466;18.036;2023-07-08T12:59:21;107244.69;;;33.33;55.47
19208;BME280;9737;59.466;18.036;2023-07-08T13:01:52;106398.72;;;31.66;54.99
19208;BME280;9737;59.466;18.036;2023-07-08T13:04:20;105791.63;;;30.44;54.88
19208;BME280;9737;59.466;18.036;2023-07-08T13:06:48;105888.00;;;30.67;54.66
19208;BME280;9737;59.466;18.036;2023-07-08T13:09:36;106631.44;;;32.24;54.19
19208;BME280;9737;59.466;18.036;2023-07-08T13:12:13;107480.66;;;33.98;54.04
19208;BME280;9737;59.466;18.036;2023-07-08T13:14:42;107586.38;;;34.16;54.00
19208;BME280;9737;59.466;18.036;2023-07-08T13:17:13;107020.06;;;33.07;53.98